Detall de PIREP

Printer-friendly versionPDF version

[2010/02/19 23:58:00]
Flight IATA:CT2201
Pilot Number:026
Company ICAO:CAT
Aircraft Type:DC85/A
PAX:136
Departing Airport: LFOH
Destination Airport: LFMP
Alternate Airport:LFBO
Online: VATSIM
Route:DVL UN859 GAI/N0300F190 G36 ORBIL
Flight Level:FL330
No Slew and time accel
No pause
Crash detect
Detect pilot in Cockpit between each 30 and 45 minutes
23:58 Zero fuel Weight: 189727 Lbs, Fuel Weight: 26025 Lbs
23:58 VATSIM:LFOH 192330Z AUTO 22011KT 9999NDV BKN032 BKN180 03/01 Q0998
23:58 VATSIM:LFMP 192330Z AUTO 31017KT 9999NDV NSC 08/01 Q1002
23:58 VOICE CATALONIAN
00:01 Parking Brakes off
00:09 Take-off
00:09 Take off Weight: 214725 Lbs
00:09 Wind: 266º @ 011 Knots Heading: 225º
00:09 POS N49º 31´ 43´´ E000º 04´ 49´´
00:09 Flaps:2 at 184 Knots
00:09 Gear Up: 186 Knots
00:09 Flaps:1 at 200 Knots
00:10 Flaps:0 at 219 Knots
00:24 Wind:224º@019 Knots Heading: 167º Gr
ound Speed: 441 Knots Altitude 32227 ft
00:24 TOC
00:24 Fuel Weight: 19815 Lb
00:39 Wind:224º@016 Knots Heading: 155º Ground Speed: 466 Knots Altitude 32664 ft
00:50 TOD
00:50 Fuel Weight: 13504 Lb
00:54 Wind:269º@021 Knots Heading: 173º Ground Speed: 468 Knots Altitude 27122 ft
01:09 Wind:299º@026 Knots Heading: 150º Ground Speed: 317 Knots Altitude 4681 ft
01:18 Gear Down: 176 Knots
01:19 Flaps:1 at 195 Knots
01:19 Flaps:2 at 161 Knots
01:20 Flaps:3 at 148 Knots
01:20 Flaps:4 at 143 Knots
01:20 Flaps:5 at 137 Knots
01:20 TouchDown:Rate -578 ft/min Speed: 122 Knots
01:21 VATSIM:LFMP 200030Z AUTO 30012KT 9999NDV NSC 08/01 Q1003
01:21 Land
01:21 Wind:321º@014 Knots
01:21 Heading: 327º
01:21 Flight Duration: 01:12
01:21 Landing Weight: 199524 Lbs
01:21 POS N42º 44´ 37´´ E002º 52´ 13´´
01:26 Parking brakes on
01:26 Block to Block Duration: 01:25
01:26 F
inal Fuel: 9309 Lbls
01:26 Spent Fuel: 16715 Lbls
01:26 Flight Length: 467 NM
01:26 TOD Land Length: 171 NM

Exportar CSV

Powered by Drupal - Modified by Danger4k